Milton, Canada
Current Conditions -  °F | °C
As of 6:00 PM on Thursday 18 Dec 2014 (Local Time) from CYYZ Reporting Station
Overcast Overcast  
Wind Chill: 17°   Ceiling: 2000
Heat Index: 28°   Visibility: 15mi
Dew Point: 21°   Wind: 16mph
Humidity: 74%   Direction: 330°NNW
Pressure: 30.1"   Gusts: NA
Location:  43.51°N, 79.88°W
Report Text: CYYZ 182300Z 33014KT 15SM OVC020 M02/M06 A3010 RMK SC8 SLP201
Loading
Personal Weather Stations






























Interactive Weather Map New forecast layout! Learn more

10-Day Weather Forecast

Advertisements
Track Severe Weather on mobile